createdAt,value
2023-04-14T00:00:10.084Z,97201.56
2023-04-14T00:02:38.399Z,97207.38
2023-04-14T00:05:05.540Z,97203.94
2023-04-14T00:07:32.016Z,97198.59
2023-04-14T00:09:58.724Z,97199.34
2023-04-14T00:12:25.518Z,97196.03
2023-04-14T00:14:51.964Z,97193.59
2023-04-14T00:17:22.563Z,97185.13
2023-04-14T00:19:49.402Z,97195.06
2023-04-14T00:22:16.118Z,97197.94
2023-04-14T00:24:45.481Z,97194.16
2023-04-14T00:27:12.134Z,97198.63
2023-04-14T00:29:39.373Z,97208.09
2023-04-14T00:32:14.773Z,97203.53
2023-04-14T00:34:41.493Z,97204.09
2023-04-14T00:37:08.212Z,97197.41
2023-04-14T00:39:34.868Z,97207.66
2023-04-14T00:42:02.276Z,97206.56
2023-04-14T00:44:28.842Z,97200.41
2023-04-14T00:46:57.063Z,97205.66
2023-04-14T00:49:24.406Z,97213.47
2023-04-14T00:51:51.459Z,97208.66
2023-04-14T00:54:20.289Z,97210.31
2023-04-14T00:56:47.540Z,97207.44
2023-04-14T00:59:14.332Z,97210.09
2023-04-14T01:01:43.414Z,97207.66
2023-04-14T01:04:10.153Z,97215.88
2023-04-14T01:06:36.851Z,97215.63
2023-04-14T01:09:07.581Z,97212.00
2023-04-14T01:11:52.015Z,97215.88
2023-04-14T01:14:43.512Z,97205.19
2023-04-14T01:17:24.907Z,97211.31
2023-04-14T01:20:07.344Z,97218.06
2023-04-14T01:22:37.920Z,97222.63
2023-04-14T01:25:25.517Z,97222.06
2023-04-14T01:28:22.384Z,97212.63
2023-04-14T01:31:24.153Z,97212.28
2023-04-14T01:33:59.415Z,97221.31
2023-04-14T01:36:37.789Z,97223.00
2023-04-14T01:39:08.220Z,97217.56
2023-04-14T01:41:41.239Z,97228.19
2023-04-14T01:44:10.379Z,97224.09
2023-04-14T01:46:38.049Z,97221.97
2023-04-14T01:49:06.845Z,97222.72
2023-04-14T01:51:36.262Z,97222.97
2023-04-14T01:54:04.904Z,97231.78
2023-04-14T01:56:38.793Z,97222.75
2023-04-14T01:59:06.316Z,97226.75
2023-04-14T02:01:35.528Z,97227.88
2023-04-14T02:04:03.628Z,97223.63
2023-04-14T02:06:32.188Z,97219.84
2023-04-14T02:09:06.623Z,97230.06
2023-04-14T02:11:35.907Z,97236.97
2023-04-14T02:14:05.444Z,97234.94
2023-04-14T02:16:35.771Z,97229.94
2023-04-14T02:19:05.225Z,97232.16
2023-04-14T02:21:35.414Z,97229.81
2023-04-14T02:24:08.330Z,97227.59
2023-04-14T02:26:39.859Z,97221.16
2023-04-14T02:29:13.240Z,97229.28
2023-04-14T02:31:50.415Z,97227.72
2023-04-14T02:34:27.926Z,97224.25
2023-04-14T02:36:57.896Z,97225.41
2023-04-14T02:39:39.424Z,97234.03
2023-04-14T02:42:15.538Z,97230.59
2023-04-14T02:44:51.859Z,97244.25
2023-04-14T02:47:29.681Z,97244.91
2023-04-14T02:49:59.561Z,97250.91
2023-04-14T02:52:31.516Z,97256.88
2023-04-14T02:55:00.442Z,97253.00
2023-04-14T02:57:29.966Z,97255.22
2023-04-14T02:59:58.822Z,97258.09
2023-04-14T03:02:26.164Z,97257.19
2023-04-14T03:04:53.553Z,97259.38
2023-04-14T03:07:21.755Z,97261.13
2023-04-14T03:09:53.547Z,97257.56
2023-04-14T03:12:21.041Z,97252.13
2023-04-14T03:14:48.539Z,97251.22
2023-04-14T03:17:19.310Z,97242.75
2023-04-14T03:19:48.683Z,97251.47
2023-04-14T03:22:19.707Z,97244.25
2023-04-14T03:24:47.085Z,97247.47
2023-04-14T03:27:16.726Z,97241.91
2023-04-14T03:29:46.838Z,97247.56
2023-04-14T03:32:16.258Z,97256.78
2023-04-14T03:34:48.959Z,97252.00
2023-04-14T03:37:26.230Z,97252.78
2023-04-14T03:39:53.926Z,97251.28
2023-04-14T03:42:21.394Z,97250.13
2023-04-14T03:44:53.392Z,97252.19
2023-04-14T03:47:23.604Z,97246.66
2023-04-14T03:49:58.879Z,97255.50
2023-04-14T03:52:26.981Z,97246.03
2023-04-14T03:54:56.527Z,97251.72
2023-04-14T03:57:26.434Z,97249.38
2023-04-14T03:59:55.506Z,97254.91
2023-04-14T04:02:22.989Z,97252.50
2023-04-14T04:04:50.345Z,97255.78
2023-04-14T04:07:19.370Z,97259.63
2023-04-14T04:09:47.361Z,97264.72
2023-04-14T04:12:16.465Z,97268.94
2023-04-14T04:14:42.936Z,97270.84
2023-04-14T04:17:13.761Z,97270.84
2023-04-14T04:19:47.817Z,97276.94
2023-04-14T04:22:17.357Z,97283.50
2023-04-14T04:24:47.411Z,97283.94
2023-04-14T04:27:27.190Z,97288.63
2023-04-14T04:29:55.725Z,97286.25
2023-04-14T04:32:22.530Z,97286.56
2023-04-14T04:34:52.628Z,97284.47
2023-04-14T04:37:20.115Z,97286.03
2023-04-14T04:39:48.682Z,97287.09
2023-04-14T04:42:16.506Z,97284.88
2023-04-14T04:44:43.167Z,97284.69
2023-04-14T04:47:13.428Z,97288.13
2023-04-14T04:49:39.905Z,97281.50
2023-04-14T04:52:06.522Z,97291.94
2023-04-14T04:54:35.427Z,97289.09
2023-04-14T04:57:01.896Z,97286.44
2023-04-14T04:59:28.457Z,97287.66
2023-04-14T05:01:57.359Z,97289.19
2023-04-14T05:04:24.098Z,97294.34
2023-04-14T05:06:52.946Z,97292.91
2023-04-14T05:09:19.660Z,97293.25
2023-04-14T05:11:46.344Z,97298.97
2023-04-14T05:14:12.847Z,97304.22
2023-04-14T05:16:41.122Z,97309.59
2023-04-14T05:19:07.619Z,97307.56
2023-04-14T05:21:37.822Z,97308.38
2023-04-14T05:24:10.439Z,97314.66
2023-04-14T05:26:57.472Z,97320.44
2023-04-14T05:29:23.521Z,97315.81
2023-04-14T05:31:49.983Z,97314.63
2023-04-14T05:34:16.703Z,97313.13
2023-04-14T05:36:45.453Z,97301.38
2023-04-14T05:39:12.020Z,97311.41
2023-04-14T05:41:38.474Z,97311.94
2023-04-14T05:44:06.787Z,97314.88
2023-04-14T05:46:33.570Z,97312.50
2023-04-14T05:49:01.368Z,97314.09
2023-04-14T05:51:28.677Z,97316.31
2023-04-14T05:53:55.529Z,97314.84
2023-04-14T05:56:22.080Z,97319.97
2023-04-14T05:58:54.448Z,97316.88
2023-04-14T06:01:20.929Z,97311.78
2023-04-14T06:03:47.641Z,97314.78
2023-04-14T06:06:14.544Z,97320.09
2023-04-14T06:08:41.429Z,97318.09
2023-04-14T06:11:12.036Z,97318.25
2023-04-14T06:13:38.691Z,97319.72
2023-04-14T06:16:05.568Z,97317.25
2023-04-14T06:18:32.400Z,97321.34
2023-04-14T06:21:02.700Z,97316.38
2023-04-14T06:23:29.433Z,97313.72
2023-04-14T06:25:55.947Z,97313.59
2023-04-14T06:28:24.319Z,97315.94
2023-04-14T06:30:51.071Z,97313.22
2023-04-14T06:33:17.809Z,97315.03
2023-04-14T06:35:51.446Z,97306.78
2023-04-14T06:38:18.016Z,97306.94
2023-04-14T06:40:44.495Z,97310.63
2023-04-14T06:43:11.200Z,97302.31
2023-04-14T06:45:37.808Z,97306.44
2023-04-14T06:48:07.901Z,97301.88
2023-04-14T06:50:36.246Z,97305.84
2023-04-14T06:53:06.492Z,97306.38
2023-04-14T06:55:36.219Z,97306.59
2023-04-14T06:58:02.848Z,97298.56
2023-04-14T07:00:29.588Z,97301.56
2023-04-14T07:02:57.931Z,97296.53
2023-04-14T07:05:24.886Z,97295.19
2023-04-14T07:07:51.637Z,97290.38
2023-04-14T07:10:18.793Z,97289.78
2023-04-14T07:12:47.517Z,97290.63
2023-04-14T07:15:18.116Z,97282.44
2023-04-14T07:17:44.630Z,97278.19
2023-04-14T07:20:11.747Z,97280.69
2023-04-14T07:22:41.663Z,97274.88
2023-04-14T07:25:08.476Z,97269.53
2023-04-14T07:27:36.798Z,97272.03
2023-04-14T07:30:05.955Z,97270.72
2023-04-14T07:32:33.104Z,97267.66
2023-04-14T07:34:59.773Z,97270.09
2023-04-14T07:37:28.416Z,97274.44
2023-04-14T07:39:54.932Z,97265.66
2023-04-14T07:42:21.905Z,97259.38
2023-04-14T07:44:48.401Z,97261.03
2023-04-14T07:47:14.905Z,97264.63
2023-04-14T07:49:43.357Z,97263.25
2023-04-14T07:52:10.768Z,97257.81
2023-04-14T07:54:37.460Z,97262.31
2023-04-14T07:57:05.786Z,97257.81
2023-04-14T07:59:32.300Z,97254.00
2023-04-14T08:01:59.008Z,97249.81
2023-04-14T08:04:28.410Z,97247.19
2023-04-14T08:06:54.939Z,97256.06
2023-04-14T08:09:21.525Z,97251.47
2023-04-14T08:11:48.174Z,97249.19
2023-04-14T08:14:14.754Z,97249.31
2023-04-14T08:16:41.687Z,97247.75
2023-04-14T08:19:10.151Z,97247.69
2023-04-14T08:21:36.891Z,97247.16
2023-04-14T08:24:03.693Z,97241.00
2023-04-14T08:26:30.751Z,97241.50
2023-04-14T08:28:57.249Z,97238.38
2023-04-14T08:31:25.035Z,97236.59
2023-04-14T08:33:54.611Z,97241.78
2023-04-14T08:36:21.677Z,97237.53
2023-04-14T08:38:48.187Z,97241.47
2023-04-14T08:41:16.092Z,97239.91
2023-04-14T08:43:42.926Z,97239.38
2023-04-14T08:46:14.421Z,97238.22
2023-04-14T08:48:43.835Z,97239.88
2023-04-14T08:51:18.863Z,97234.56
2023-04-14T08:53:48.245Z,97236.66
2023-04-14T08:56:18.307Z,97231.81
2023-04-14T08:58:48.807Z,97225.56
2023-04-14T09:01:17.491Z,97227.47
2023-04-14T09:03:44.734Z,97240.88
2023-04-14T09:06:12.743Z,97231.00
2023-04-14T09:08:45.370Z,97231.22
2023-04-14T09:11:12.791Z,97226.41
2023-04-14T09:13:40.744Z,97235.75
2023-04-14T09:16:08.512Z,97225.25
2023-04-14T09:18:36.687Z,97219.75
2023-04-14T09:21:29.985Z,97228.50
2023-04-14T09:23:56.954Z,97220.66
2023-04-14T09:26:26.144Z,97224.75
2023-04-14T09:28:52.918Z,97217.78
2023-04-14T09:31:22.498Z,97225.97
2023-04-14T09:33:52.413Z,97221.50
2023-04-14T09:36:24.473Z,97207.44
2023-04-14T09:38:53.414Z,97218.22
2023-04-14T09:41:28.460Z,97215.03
2023-04-14T09:43:58.589Z,97204.19
2023-04-14T09:46:25.147Z,97201.69
2023-04-14T09:48:52.533Z,97206.78
2023-04-14T09:51:23.429Z,97193.81
2023-04-14T09:53:52.895Z,97198.06
2023-04-14T09:56:21.795Z,97200.06
2023-04-14T09:58:49.039Z,97194.69
2023-04-14T10:01:18.332Z,97200.78
2023-04-14T10:03:49.416Z,97194.16
2023-04-14T10:06:23.843Z,97188.09
2023-04-14T10:08:54.366Z,97185.09
2023-04-14T10:11:26.068Z,97176.75
2023-04-14T10:13:59.328Z,97171.91
2023-04-14T10:16:28.255Z,97165.75
2023-04-14T10:18:55.620Z,97175.81
2023-04-14T10:21:23.223Z,97168.91
2023-04-14T10:23:51.157Z,97163.53
2023-04-14T10:26:19.211Z,97158.38
2023-04-14T10:28:48.197Z,97149.66
2023-04-14T10:31:20.984Z,97149.09
2023-04-14T10:33:48.789Z,97145.69
2023-04-14T10:36:24.868Z,97142.31
2023-04-14T10:39:00.904Z,97135.75
2023-04-14T10:41:28.848Z,97140.59
2023-04-14T10:43:55.752Z,97141.34
2023-04-14T10:46:22.902Z,97131.41
2023-04-14T10:48:51.659Z,97136.44
2023-04-14T10:51:18.346Z,97126.03
2023-04-14T10:53:47.692Z,97122.69
2023-04-14T10:56:14.801Z,97118.56
2023-04-14T10:58:41.336Z,97117.81
2023-04-14T11:01:28.616Z,97115.22
2023-04-14T11:03:56.920Z,97107.94
2023-04-14T11:06:48.451Z,97120.19
2023-04-14T11:09:27.659Z,97108.06
2023-04-14T11:12:01.176Z,97116.81
2023-04-14T11:14:30.649Z,97107.06
2023-04-14T11:17:05.195Z,97108.06
2023-04-14T11:19:33.409Z,97107.22
2023-04-14T11:22:00.107Z,97098.94
2023-04-14T11:24:26.936Z,97095.78
2023-04-14T11:26:57.232Z,97082.34
2023-04-14T11:29:23.844Z,97081.94
2023-04-14T11:32:06.662Z,97076.84
2023-04-14T11:34:34.385Z,97073.84
2023-04-14T11:37:04.197Z,97072.06
2023-04-14T11:39:31.050Z,97071.44
2023-04-14T11:42:00.563Z,97064.56
2023-04-14T11:44:27.596Z,97061.94
2023-04-14T11:46:54.564Z,97050.63
2023-04-14T11:49:33.392Z,97039.75
2023-04-14T11:52:05.215Z,97039.97
2023-04-14T11:54:36.699Z,97041.25
2023-04-14T11:57:08.590Z,97034.06
2023-04-14T11:59:42.156Z,97034.75
2023-04-14T12:02:16.590Z,97039.97
2023-04-14T12:04:47.237Z,97032.09
2023-04-14T12:07:19.470Z,97033.63
2023-04-14T12:09:49.016Z,97024.34
2023-04-14T12:12:17.657Z,97017.03
2023-04-14T12:14:49.439Z,97018.91
2023-04-14T12:17:20.396Z,97005.94
2023-04-14T12:19:48.889Z,97008.78
2023-04-14T12:22:26.684Z,97006.63
2023-04-14T12:24:54.193Z,97002.91
2023-04-14T12:27:23.504Z,97004.19
2023-04-14T12:29:50.528Z,97008.34
2023-04-14T12:32:22.261Z,97005.09
2023-04-14T12:34:58.721Z,97005.88
2023-04-14T12:37:29.301Z,97003.00
2023-04-14T12:40:02.554Z,96997.06
2023-04-14T12:42:43.845Z,96989.75
2023-04-14T12:45:12.479Z,96983.88
2023-04-14T12:47:39.488Z,96979.19
2023-04-14T12:50:29.187Z,96982.66
2023-04-14T12:52:59.815Z,96974.38
2023-04-14T12:55:31.199Z,96968.47
2023-04-14T12:58:00.928Z,96959.97
2023-04-14T13:00:28.095Z,96956.59
2023-04-14T13:02:57.892Z,96952.34
2023-04-14T13:05:24.537Z,96939.72
2023-04-14T13:07:51.036Z,96938.75
2023-04-14T13:10:24.267Z,96934.34
2023-04-14T13:12:50.922Z,96939.31
2023-04-14T13:16:10.448Z,96937.59
2023-04-14T13:18:04.820Z,96932.19
2023-04-14T13:20:31.544Z,96921.69
2023-04-14T13:22:58.099Z,96928.63
2023-04-14T13:25:24.605Z,96927.38
2023-04-14T13:27:51.477Z,96913.16
2023-04-14T13:30:18.123Z,96913.59
2023-04-14T13:32:45.167Z,96903.81
2023-04-14T13:35:14.067Z,96906.00
2023-04-14T13:37:41.228Z,96905.38
2023-04-14T13:40:16.665Z,96901.00
2023-04-14T13:42:43.162Z,96902.66
2023-04-14T13:45:10.061Z,96892.09
2023-04-14T13:47:43.117Z,96889.56
2023-04-14T13:50:12.675Z,96890.97
2023-04-14T13:52:40.643Z,96891.41
2023-04-14T13:55:08.251Z,96882.38
2023-04-14T13:57:34.725Z,96878.69
2023-04-14T14:00:07.350Z,96870.94
2023-04-14T14:02:35.838Z,96870.16
2023-04-14T14:05:03.463Z,96868.34
2023-04-14T14:07:30.002Z,96861.84
2023-04-14T14:09:56.523Z,96862.63
2023-04-14T14:12:26.408Z,96856.19
2023-04-14T14:14:52.878Z,96857.50
2023-04-14T14:17:21.203Z,96851.53
2023-04-14T14:19:48.240Z,96842.25
2023-04-14T14:22:14.793Z,96846.34
2023-04-14T14:24:47.962Z,96843.19
2023-04-14T14:27:14.413Z,96833.81
2023-04-14T14:29:41.396Z,96831.53
2023-04-14T14:32:08.129Z,96835.97
2023-04-14T14:34:34.580Z,96830.97
2023-04-14T14:37:04.519Z,96826.00
2023-04-14T14:39:32.740Z,96825.47
2023-04-14T14:42:02.421Z,96826.44
2023-04-14T14:44:28.987Z,96821.03
2023-04-14T14:46:57.443Z,96820.69
2023-04-14T14:49:24.161Z,96822.06
2023-04-14T14:51:50.776Z,96820.38
2023-04-14T14:54:17.356Z,96818.50
2023-04-14T14:56:43.841Z,96820.31
2023-04-14T14:59:10.375Z,96815.97
2023-04-14T15:01:37.115Z,96815.03
2023-04-14T15:04:07.785Z,96808.38
2023-04-14T15:06:35.413Z,96801.59
2023-04-14T15:09:04.469Z,96800.91
2023-04-14T15:11:31.116Z,96799.47
2023-04-14T15:14:01.211Z,96808.97
2023-04-14T15:16:33.317Z,96801.50
2023-04-14T15:18:59.837Z,96808.16
2023-04-14T15:21:26.361Z,96803.22
2023-04-14T15:23:52.896Z,96802.78
2023-04-14T15:26:19.365Z,96800.41
2023-04-14T15:28:48.144Z,96804.75
2023-04-14T15:31:14.728Z,96793.59
2023-04-14T15:33:41.858Z,96797.63
2023-04-14T15:36:08.356Z,96803.22
2023-04-14T15:38:35.007Z,96803.91
2023-04-14T15:41:04.466Z,96799.88
2023-04-14T15:43:31.161Z,96792.66
2023-04-14T15:45:59.428Z,96798.69
2023-04-14T15:48:26.563Z,96793.25
2023-04-14T15:50:53.017Z,96787.38
2023-04-14T15:53:24.392Z,96789.50
2023-04-14T15:55:51.289Z,96790.03
2023-04-14T15:58:18.158Z,96790.47
2023-04-14T16:00:49.137Z,96795.06
2023-04-14T16:03:16.986Z,96789.59
2023-04-14T16:05:43.593Z,96794.13
2023-04-14T16:08:12.312Z,96795.97
2023-04-14T16:10:42.680Z,96792.47
2023-04-14T16:13:14.886Z,96789.97
2023-04-14T16:15:42.026Z,96787.22
2023-04-14T16:18:08.926Z,96786.03
2023-04-14T16:20:36.031Z,96793.88
2023-04-14T16:23:02.518Z,96795.56
2023-04-14T16:25:29.307Z,96797.25
2023-04-14T16:27:55.794Z,96797.75
2023-04-14T16:30:22.285Z,96800.66
2023-04-14T16:32:48.813Z,96798.19
2023-04-14T16:35:17.572Z,96803.81
2023-04-14T16:37:46.013Z,96802.84
2023-04-14T16:40:12.475Z,96810.00
2023-04-14T16:42:40.729Z,96804.97
2023-04-14T16:45:08.806Z,96797.25
2023-04-14T16:47:35.715Z,96803.19
2023-04-14T16:50:06.646Z,96797.69
2023-04-14T16:52:34.929Z,96800.50
2023-04-14T16:55:01.986Z,96789.16
2023-04-14T16:57:28.704Z,96794.53
2023-04-14T16:59:55.223Z,96782.19
2023-04-14T17:02:23.980Z,96787.97
2023-04-14T17:04:52.885Z,96789.06
2023-04-14T17:07:19.441Z,96788.88
2023-04-14T17:09:47.148Z,96790.94
2023-04-14T17:12:13.655Z,96787.16
2023-04-14T17:14:40.299Z,96792.03
2023-04-14T17:17:07.226Z,96790.06
2023-04-14T17:19:36.453Z,96796.75
2023-04-14T17:22:03.658Z,96797.16
2023-04-14T17:24:30.774Z,96803.06
2023-04-14T17:26:57.527Z,96794.69
2023-04-14T17:29:27.676Z,96794.81
2023-04-14T17:31:54.456Z,96796.03
2023-04-14T17:34:21.056Z,96789.50
2023-04-14T17:36:47.723Z,96795.06
2023-04-14T17:39:15.261Z,96787.88
2023-04-14T17:41:42.163Z,96792.72
2023-04-14T17:44:08.940Z,96794.81
2023-04-14T17:46:35.424Z,96791.06
2023-04-14T17:49:03.874Z,96794.38
2023-04-14T17:51:31.712Z,96793.75
2023-04-14T17:53:58.970Z,96793.91
2023-04-14T17:56:27.533Z,96787.88
2023-04-14T17:58:54.090Z,96781.81
2023-04-14T18:01:22.124Z,96789.72
2023-04-14T18:03:55.314Z,96787.50
2023-04-14T18:06:23.044Z,96780.69
2023-04-14T18:08:50.267Z,96782.69
2023-04-14T18:11:19.631Z,96787.47
2023-04-14T18:13:46.281Z,96783.31
2023-04-14T18:16:15.000Z,96784.53
2023-04-14T18:18:41.589Z,96783.84
2023-04-14T18:21:08.354Z,96785.44
2023-04-14T18:23:35.220Z,96788.22
2023-04-14T18:28:39.074Z,96789.88
2023-04-14T18:31:07.776Z,96788.41
2023-04-14T18:33:34.341Z,96796.22
2023-04-14T18:36:01.166Z,96795.53
2023-04-14T18:38:30.423Z,96802.13
2023-04-14T18:41:04.939Z,96801.75
2023-04-14T18:43:36.989Z,96802.56
2023-04-14T18:46:05.882Z,96802.56
2023-04-14T18:48:32.633Z,96801.75
2023-04-14T18:51:09.720Z,96800.63
2023-04-14T18:53:36.422Z,96807.94
2023-04-14T18:56:03.267Z,96811.00
2023-04-14T18:58:30.475Z,96809.88
2023-04-14T19:00:57.410Z,96810.22
2023-04-14T19:03:24.247Z,96808.69
2023-04-14T19:05:52.568Z,96808.66
2023-04-14T19:08:19.162Z,96814.81
2023-04-14T19:10:48.192Z,96813.25
2023-04-14T19:13:17.673Z,96812.47
2023-04-14T19:15:44.285Z,96813.56
2023-04-14T19:18:11.408Z,96814.31
2023-04-14T19:20:38.710Z,96815.84
2023-04-14T19:23:08.949Z,96818.50
2023-04-14T19:28:32.912Z,96818.09
2023-04-14T19:31:00.145Z,96817.72
2023-04-14T19:33:27.598Z,96821.56
2023-04-14T19:35:56.293Z,96821.19
2023-04-14T19:38:23.181Z,96822.31
2023-04-14T19:40:50.200Z,96819.25
2023-04-14T19:43:20.346Z,96821.53
2023-04-14T19:45:53.503Z,96822.31
2023-04-14T19:48:23.839Z,96819.97
2023-04-14T19:50:58.690Z,96813.78
2023-04-14T19:53:25.416Z,96818.38
2023-04-14T19:55:53.694Z,96826.06
2023-04-14T19:58:23.347Z,96829.50
2023-04-14T20:00:52.361Z,96830.66
2023-04-14T20:03:20.350Z,96833.72
2023-04-14T20:05:54.988Z,96832.59
2023-04-14T20:08:22.806Z,96828.31
2023-04-14T20:10:54.098Z,96836.72
2023-04-14T20:13:22.728Z,96833.25
2023-04-14T20:15:53.962Z,96835.53
2023-04-14T20:18:22.507Z,96833.59
2023-04-14T20:20:51.486Z,96838.97
2023-04-14T20:23:18.087Z,96836.25
2023-04-14T20:25:45.718Z,96831.63
2023-04-14T20:28:18.408Z,96829.28
2023-04-14T20:30:48.157Z,96831.16
2023-04-14T20:33:16.639Z,96833.06
2023-04-14T20:35:45.522Z,96838.78
2023-04-14T20:38:15.158Z,96836.81
2023-04-14T20:40:42.563Z,96837.94
2023-04-14T20:43:11.366Z,96840.19
2023-04-14T20:45:38.696Z,96850.88
2023-04-14T20:48:06.048Z,96846.16
2023-04-14T20:50:33.796Z,96846.88
2023-04-14T20:53:03.618Z,96849.50
2023-04-14T20:55:30.161Z,96850.25
2023-04-14T20:57:58.577Z,96848.69
2023-04-14T21:00:25.181Z,96855.19
2023-04-14T21:02:52.408Z,96855.94
2023-04-14T21:05:21.612Z,96858.25
2023-04-14T21:07:48.335Z,96854.03
2023-04-14T21:10:17.953Z,96853.25
2023-04-14T21:15:00.397Z,96857.44
2023-04-14T21:15:54.635Z,96858.94
2023-04-14T21:18:20.034Z,96858.09
2023-04-14T21:20:46.524Z,96866.88
2023-04-14T21:23:12.985Z,96882.72
2023-04-14T21:25:41.288Z,96885.84
2023-04-14T21:28:08.655Z,96885.03
2023-04-14T21:30:37.752Z,96885.84
2023-04-14T21:33:06.933Z,96889.22
2023-04-14T21:35:34.900Z,96881.06
2023-04-14T21:38:02.523Z,96882.13
2023-04-14T21:40:29.686Z,96879.38
2023-04-14T21:42:58.187Z,96882.41
2023-04-14T21:45:25.078Z,96883.19
2023-04-14T21:47:53.862Z,96869.75
2023-04-14T21:50:20.952Z,96874.75
2023-04-14T21:52:47.711Z,96879.28
2023-04-14T21:55:14.586Z,96878.47
2023-04-14T21:57:42.527Z,96877.66
2023-04-14T22:00:19.215Z,96880.34
2023-04-14T22:02:46.097Z,96883.75
2023-04-14T22:05:14.870Z,96887.88
2023-04-14T22:07:41.633Z,96889.03
2023-04-14T22:10:08.563Z,96896.25
2023-04-14T22:12:39.771Z,96888.50
2023-04-14T22:15:10.648Z,96906.53
2023-04-14T22:17:41.544Z,96900.44
2023-04-14T22:20:09.774Z,96902.03
2023-04-14T22:22:38.381Z,96894.41
2023-04-14T22:25:08.028Z,96899.09
2023-04-14T22:27:34.850Z,96892.75
2023-04-14T22:30:02.766Z,96895.25
2023-04-14T22:32:29.350Z,96892.81
2023-04-14T22:34:55.838Z,96899.25
2023-04-14T22:37:22.682Z,96901.16
2023-04-14T22:39:49.192Z,96899.19
2023-04-14T22:42:15.980Z,96893.78
2023-04-14T22:44:42.941Z,96895.69
2023-04-14T22:47:11.346Z,96893.78
2023-04-14T22:49:37.828Z,96898.72
2023-04-14T22:52:04.594Z,96896.75
2023-04-14T22:54:31.516Z,96901.69
2023-04-14T22:56:58.060Z,96902.06
2023-04-14T22:59:26.901Z,96898.19
2023-04-14T23:01:53.664Z,96898.53
2023-04-14T23:04:20.375Z,96899.66
2023-04-14T23:06:57.217Z,96896.06
2023-04-14T23:09:30.409Z,96897.75
2023-04-14T23:12:01.263Z,96902.75
2023-04-14T23:14:34.285Z,96900.41
2023-04-14T23:17:07.385Z,96901.81
2023-04-14T23:19:33.829Z,96908.63
2023-04-14T23:22:00.667Z,96906.50
2023-04-14T23:24:27.335Z,96901.47
2023-04-14T23:26:54.176Z,96903.72
2023-04-14T23:29:20.683Z,96901.34
2023-04-14T23:31:49.431Z,96907.47
2023-04-14T23:34:16.200Z,96914.44
2023-04-14T23:36:43.434Z,96911.34
2023-04-14T23:39:10.379Z,96906.00
2023-04-14T23:41:36.872Z,96903.69
2023-04-14T23:44:07.973Z,96899.81
2023-04-14T23:46:36.797Z,96902.06
2023-04-14T23:49:22.074Z,96907.44
2023-04-14T23:51:51.501Z,96904.41
2023-04-14T23:54:18.068Z,96895.22
2023-04-14T23:56:47.325Z,96892.53
2023-04-14T23:59:14.030Z,96887.59
